Bw Leopard — 9V2344 — position and weather

sailwx.info

Track history (hours):
 
Tides and Currents Weather Stations Pressure Air Temp Water Temp Dewpoint Dewpoint Depression Visibility Wind Speed Wind Dir Waves Ship Positions

Bw Leopard

Last reported at 2017-Nov-15 04:17 UTC. Time now 2017-Nov-19 21:41 UTC.
Position N 08°58' W 015°41'.

Length 183 m; draft 11.7 m.

Type: Tanker. MMSI: 563868000.

Date/timePositionNaut miles runAvg speedWind from/ knotsBaromVisibWave heightAir tempDewpointWater temp
2017-Nov-15 04:17N 08°58' W 015°41'6211.9
2017-Nov-14 23:03N 09°44' W 016°23'012.1
2017-Nov-14 23:00N 09°44' W 016°23'  
2017-Nov-11 11:17N 26°12' W 015°52'9712.8
2017-Nov-11 03:44N 27°42' W 015°12'312.7
2017-Nov-11 03:29N 27°45' W 015°10'612.7
2017-Nov-11 03:00N 27°50' W 015°08'612.6
2017-Nov-11 02:31N 27°56' W 015°05'612.6
2017-Nov-11 02:00N 28°02' W 015°03'612.8
2017-Nov-11 01:30N 28°08' W 015°01'612.9
2017-Nov-11 01:00N 28°14' W 014°58'612.7
2017-Nov-11 00:30N 28°20' W 014°56'612.9
2017-Nov-11 00:00N 28°27' W 014°55'612.8
2017-Nov-10 23:30N 28°33' W 014°53'612.7
2017-Nov-10 23:00N 28°39' W 014°52'613.0
2017-Nov-10 22:30N 28°45' W 014°50'712.9
2017-Nov-10 21:59N 28°52' W 014°48'612.9
2017-Nov-10 21:30N 28°58' W 014°46'612.9
2017-Nov-10 21:00N 29°04' W 014°45'612.9
2017-Nov-10 20:31N 29°11' W 014°44'612.4
2017-Nov-10 20:00N 29°17' W 014°42'612.1
2017-Nov-10 19:30N 29°23' W 014°41'612.1
2017-Nov-10 19:01N 29°29' W 014°40'612.1
2017-Nov-10 18:30N 29°35' W 014°38'612.3
2017-Nov-10 18:00N 29°41' W 014°37'712.4
2017-Nov-10 17:29N 29°47' W 014°35'612.2
2017-Nov-10 17:00N 29°53' W 014°34'612.2
2017-Nov-10 16:28N 29°59' W 014°32'712.2
2017-Nov-10 15:52N 30°06' W 014°30'412.1
2017-Nov-10 15:30N 30°11' W 014°30'811.9
2017-Nov-10 14:47N 30°19' W 014°28'1012.0
2017-Nov-10 13:56N 30°29' W 014°26'512.3
2017-Nov-10 13:31N 30°34' W 014°24'612.1
2017-Nov-10 13:01N 30°40' W 014°23'611.9
2017-Nov-10 12:31N 30°46' W 014°22'611.8
2017-Nov-10 12:01N 30°52' W 014°20'612.0
2017-Nov-10 11:30N 30°58' W 014°19'612.2
2017-Nov-10 11:01N 31°04' W 014°17'612.0
2017-Nov-10 10:31N 31°09' W 014°16'911.8
2017-Nov-10 09:47N 31°18' W 014°14'4611.9
2017-Nov-10 05:55N 32°03' W 014°03'2311.9
2017-Nov-10 03:58N 32°25' W 013°57'912.0
2017-Nov-10 03:12N 32°34' W 013°55'211.9
2017-Nov-10 03:01N 32°37' W 013°55'1112.0
2017-Nov-10 02:05N 32°48' W 013°52'112.4
2017-Nov-10 02:01N 32°48' W 013°52'612.3
2017-Nov-10 01:30N 32°54' W 013°50'612.2
2017-Nov-10 00:59N 33°01' W 013°48'  
2017-Nov-06 22:44N 47°09' W 007°21'22611.2
2017-Nov-06 02:31N 49°50' W 003°21'613.0
2017-Nov-06 02:01N 49°53' W 003°12'713.2
2017-Nov-06 01:31N 49°57' W 003°03'612.9
2017-Nov-06 01:01N 49°59' W 002°54'612.6
2017-Nov-06 00:31N 50°01' W 002°45'612.7
2017-Nov-06 00:00N 50°02' W 002°35'2011.6
2017-Nov-05 22:18N 50°07' W 002°05'3 9.5
2017-Nov-05 22:00N 50°08' W 002°01'4 9.0
2017-Nov-05 21:31N 50°09' W 001°54'4 8.4
2017-Nov-05 21:00N 50°10' W 001°48'4 8.1
2017-Nov-05 20:30N 50°11' W 001°42'4 8.3
2017-Nov-05 20:00N 50°12' W 001°36'4 8.7
2017-Nov-05 19:30N 50°14' W 001°29'5 9.4
2017-Nov-05 19:00N 50°15' W 001°22'3911.6
2017-Nov-05 15:41N 50°25' W 000°24'212.6
2017-Nov-05 15:31N 50°26' W 000°20'612.4
2017-Nov-05 15:00N 50°28' W 000°11'612.2
2017-Nov-05 14:30N 50°29' W 000°02'611.9
2017-Nov-05 14:01N 50°31' E 000°07'612.1
2017-Nov-05 13:30N 50°32' E 000°16'612.1
2017-Nov-05 13:01N 50°34' E 000°26'612.4
2017-Nov-05 12:30N 50°36' E 000°35'612.1
2017-Nov-05 12:00N 50°39' E 000°43'611.7
2017-Nov-05 11:31N 50°42' E 000°51'611.5
2017-Nov-05 11:01N 50°45' E 000°58'611.5
2017-Nov-05 10:30N 50°48' E 001°06'611.6
2017-Nov-05 10:00N 50°52' E 001°14'611.9
2017-Nov-05 09:29N 50°56' E 001°20'613.5
2017-Nov-05 09:00N 51°01' E 001°27'714.9
2017-Nov-05 08:30N 51°06' E 001°36'714.9
2017-Nov-05 08:00N 51°12' E 001°44'815.5
2017-Nov-05 07:30N 51°19' E 001°49'715.0
2017-Nov-05 07:00N 51°25' E 001°55'714.2
2017-Nov-05 06:30N 51°31' E 002°02'713.5
2017-Nov-05 06:00N 51°36' E 002°09'713.1
2017-Nov-05 05:30N 51°41' E 002°16'712.5
2017-Nov-05 04:57N 51°46' E 002°23'  
Track history (hours):
 
Tides and Currents Weather Stations Pressure Air Temp Water Temp Dewpoint Dewpoint Depression Visibility Wind Speed Wind Dir Waves Ship Positions

Bw Leopard

Last reported at 2017-Nov-15 04:17 UTC. Time now 2017-Nov-19 21:41 UTC.
Position N 08°58' W 015°41'.

Length 183 m; draft 11.7 m.

Type: Tanker. MMSI: 563868000.

Date/timePositionNaut miles runAvg speedWind from/ knotsBaromVisibWave heightAir tempDewpointWater temp
2017-Nov-15 04:17N 08°58' W 015°41'6211.9
2017-Nov-14 23:03N 09°44' W 016°23'012.1
2017-Nov-14 23:00N 09°44' W 016°23'  
2017-Nov-11 11:17N 26°12' W 015°52'9712.8
2017-Nov-11 03:44N 27°42' W 015°12'312.7
2017-Nov-11 03:29N 27°45' W 015°10'612.7
2017-Nov-11 03:00N 27°50' W 015°08'612.6
2017-Nov-11 02:31N 27°56' W 015°05'612.6
2017-Nov-11 02:00N 28°02' W 015°03'612.8
2017-Nov-11 01:30N 28°08' W 015°01'612.9
2017-Nov-11 01:00N 28°14' W 014°58'612.7
2017-Nov-11 00:30N 28°20' W 014°56'612.9
2017-Nov-11 00:00N 28°27' W 014°55'612.8
2017-Nov-10 23:30N 28°33' W 014°53'612.7
2017-Nov-10 23:00N 28°39' W 014°52'613.0
2017-Nov-10 22:30N 28°45' W 014°50'712.9
2017-Nov-10 21:59N 28°52' W 014°48'612.9
2017-Nov-10 21:30N 28°58' W 014°46'612.9
2017-Nov-10 21:00N 29°04' W 014°45'612.9
2017-Nov-10 20:31N 29°11' W 014°44'612.4
2017-Nov-10 20:00N 29°17' W 014°42'612.1
2017-Nov-10 19:30N 29°23' W 014°41'612.1
2017-Nov-10 19:01N 29°29' W 014°40'612.1
2017-Nov-10 18:30N 29°35' W 014°38'612.3
2017-Nov-10 18:00N 29°41' W 014°37'712.4
2017-Nov-10 17:29N 29°47' W 014°35'612.2
2017-Nov-10 17:00N 29°53' W 014°34'612.2
2017-Nov-10 16:28N 29°59' W 014°32'712.2
2017-Nov-10 15:52N 30°06' W 014°30'412.1
2017-Nov-10 15:30N 30°11' W 014°30'811.9
2017-Nov-10 14:47N 30°19' W 014°28'1012.0
2017-Nov-10 13:56N 30°29' W 014°26'512.3
2017-Nov-10 13:31N 30°34' W 014°24'612.1
2017-Nov-10 13:01N 30°40' W 014°23'611.9
2017-Nov-10 12:31N 30°46' W 014°22'611.8
2017-Nov-10 12:01N 30°52' W 014°20'612.0
2017-Nov-10 11:30N 30°58' W 014°19'612.2
2017-Nov-10 11:01N 31°04' W 014°17'612.0
2017-Nov-10 10:31N 31°09' W 014°16'911.8
2017-Nov-10 09:47N 31°18' W 014°14'4611.9
2017-Nov-10 05:55N 32°03' W 014°03'2311.9
2017-Nov-10 03:58N 32°25' W 013°57'912.0
2017-Nov-10 03:12N 32°34' W 013°55'211.9
2017-Nov-10 03:01N 32°37' W 013°55'1112.0
2017-Nov-10 02:05N 32°48' W 013°52'112.4
2017-Nov-10 02:01N 32°48' W 013°52'612.3
2017-Nov-10 01:30N 32°54' W 013°50'612.2
2017-Nov-10 00:59N 33°01' W 013°48'  
2017-Nov-06 22:44N 47°09' W 007°21'22611.2
2017-Nov-06 02:31N 49°50' W 003°21'613.0
2017-Nov-06 02:01N 49°53' W 003°12'713.2
2017-Nov-06 01:31N 49°57' W 003°03'612.9
2017-Nov-06 01:01N 49°59' W 002°54'612.6
2017-Nov-06 00:31N 50°01' W 002°45'612.7
2017-Nov-06 00:00N 50°02' W 002°35'2011.6
2017-Nov-05 22:18N 50°07' W 002°05'3 9.5
2017-Nov-05 22:00N 50°08' W 002°01'4 9.0
2017-Nov-05 21:31N 50°09' W 001°54'4 8.4
2017-Nov-05 21:00N 50°10' W 001°48'4 8.1
2017-Nov-05 20:30N 50°11' W 001°42'4 8.3
2017-Nov-05 20:00N 50°12' W 001°36'4 8.7
2017-Nov-05 19:30N 50°14' W 001°29'5 9.4
2017-Nov-05 19:00N 50°15' W 001°22'3911.6
2017-Nov-05 15:41N 50°25' W 000°24'212.6
2017-Nov-05 15:31N 50°26' W 000°20'612.4
2017-Nov-05 15:00N 50°28' W 000°11'612.2
2017-Nov-05 14:30N 50°29' W 000°02'611.9
2017-Nov-05 14:01N 50°31' E 000°07'612.1
2017-Nov-05 13:30N 50°32' E 000°16'612.1
2017-Nov-05 13:01N 50°34' E 000°26'612.4
2017-Nov-05 12:30N 50°36' E 000°35'612.1
2017-Nov-05 12:00N 50°39' E 000°43'611.7
2017-Nov-05 11:31N 50°42' E 000°51'611.5
2017-Nov-05 11:01N 50°45' E 000°58'611.5
2017-Nov-05 10:30N 50°48' E 001°06'611.6
2017-Nov-05 10:00N 50°52' E 001°14'611.9
2017-Nov-05 09:29N 50°56' E 001°20'613.5
2017-Nov-05 09:00N 51°01' E 001°27'714.9
2017-Nov-05 08:30N 51°06' E 001°36'714.9
2017-Nov-05 08:00N 51°12' E 001°44'815.5
2017-Nov-05 07:30N 51°19' E 001°49'715.0
2017-Nov-05 07:00N 51°25' E 001°55'714.2
2017-Nov-05 06:30N 51°31' E 002°02'713.5
2017-Nov-05 06:00N 51°36' E 002°09'713.1
2017-Nov-05 05:30N 51°41' E 002°16'712.5
2017-Nov-05 04:57N 51°46' E 002°23'  

Dump ship's entire track history